createdAt,value
2023-12-18T00:02:13.727Z,4.91
2023-12-18T00:04:45.562Z,4.92
2023-12-18T00:07:16.932Z,4.91
2023-12-18T00:09:45.349Z,4.88
2023-12-18T00:12:14.343Z,4.85
2023-12-18T00:14:43.099Z,4.83
2023-12-18T00:17:14.261Z,4.78
2023-12-18T00:19:43.664Z,4.80
2023-12-18T00:22:14.566Z,4.76
2023-12-18T00:24:44.169Z,4.77
2023-12-18T00:27:12.626Z,4.78
2023-12-18T00:29:43.630Z,4.74
2023-12-18T00:32:14.043Z,4.68
2023-12-18T00:34:47.011Z,4.64
2023-12-18T00:37:17.364Z,4.66
2023-12-18T00:39:46.530Z,4.63
2023-12-18T00:42:16.230Z,4.64
2023-12-18T00:44:45.648Z,4.67
2023-12-18T00:47:24.554Z,4.63
2023-12-18T00:49:53.381Z,4.61
2023-12-18T00:52:23.808Z,4.59
2023-12-18T00:54:55.368Z,4.61
2023-12-18T00:57:23.743Z,4.61
2023-12-18T00:59:56.336Z,4.63
2023-12-18T01:02:28.209Z,4.61
2023-12-18T01:04:56.912Z,4.57
2023-12-18T01:07:27.693Z,4.56
2023-12-18T01:09:59.879Z,4.53
2023-12-18T01:12:28.771Z,4.47
2023-12-18T01:14:57.190Z,4.47
2023-12-18T01:17:32.993Z,4.46
2023-12-18T01:20:10.762Z,4.46
2023-12-18T01:22:39.676Z,4.49
2023-12-18T01:25:12.504Z,4.47
2023-12-18T01:27:42.564Z,4.43
2023-12-18T01:30:15.650Z,4.45
2023-12-18T01:32:45.253Z,4.47
2023-12-18T01:35:17.902Z,4.42
2023-12-18T01:37:47.159Z,4.43
2023-12-18T01:40:16.272Z,4.46
2023-12-18T01:42:49.251Z,4.45
2023-12-18T01:45:21.090Z,4.43
2023-12-18T01:47:49.988Z,4.43
2023-12-18T01:50:27.488Z,4.40
2023-12-18T01:52:56.834Z,4.43
2023-12-18T01:55:29.360Z,4.39
2023-12-18T01:57:59.543Z,4.38
2023-12-18T02:00:28.262Z,4.36
2023-12-18T02:02:56.896Z,4.35
2023-12-18T02:05:29.539Z,4.35
2023-12-18T02:07:58.453Z,4.33
2023-12-18T02:10:27.758Z,4.36
2023-12-18T02:12:59.250Z,4.36
2023-12-18T02:15:29.054Z,4.33
2023-12-18T02:17:57.976Z,4.33
2023-12-18T02:20:29.278Z,4.35
2023-12-18T02:23:03.751Z,4.38
2023-12-18T02:25:32.533Z,4.40
2023-12-18T02:28:01.372Z,4.43
2023-12-18T02:30:30.450Z,4.46
2023-12-18T02:33:02.205Z,4.49
2023-12-18T02:35:32.779Z,4.50
2023-12-18T02:38:05.540Z,4.53
2023-12-18T02:40:36.049Z,4.57
2023-12-18T02:43:04.442Z,4.61
2023-12-18T02:45:35.099Z,4.61
2023-12-18T02:48:07.912Z,4.66
2023-12-18T02:50:41.773Z,4.64
2023-12-18T02:53:13.444Z,4.68
2023-12-18T02:55:42.230Z,4.68
2023-12-18T02:58:11.923Z,4.71
2023-12-18T03:00:40.327Z,4.74
2023-12-18T03:03:08.979Z,4.77
2023-12-18T03:05:40.791Z,4.78
2023-12-18T03:08:09.662Z,4.81
2023-12-18T03:10:42.095Z,4.85
2023-12-18T03:13:12.223Z,4.91
2023-12-18T03:15:42.107Z,4.95
2023-12-18T03:18:17.626Z,5.01
2023-12-18T03:20:46.401Z,5.07
2023-12-18T03:23:18.378Z,5.12
2023-12-18T03:25:54.596Z,5.22
2023-12-18T03:28:22.989Z,5.32
2023-12-18T03:30:52.913Z,5.38
2023-12-18T03:33:23.392Z,5.46
2023-12-18T03:35:53.008Z,5.52
2023-12-18T03:38:22.950Z,5.57
2023-12-18T03:40:52.755Z,5.62
2023-12-18T03:43:21.189Z,5.66
2023-12-18T03:45:50.509Z,5.69
2023-12-18T03:48:19.785Z,5.71
2023-12-18T03:50:49.161Z,5.77
2023-12-18T03:53:17.488Z,5.80
2023-12-18T03:55:46.593Z,5.83
2023-12-18T03:58:19.802Z,5.89
2023-12-18T04:00:47.972Z,5.89
2023-12-18T04:03:17.416Z,5.90
2023-12-18T04:05:46.437Z,5.90
2023-12-18T04:08:16.094Z,5.94
2023-12-18T04:10:45.336Z,5.93
2023-12-18T04:13:18.821Z,5.95
2023-12-18T04:15:49.430Z,5.97
2023-12-18T04:18:18.118Z,6.00
2023-12-18T04:20:46.509Z,6.01
2023-12-18T04:23:16.834Z,6.01
2023-12-18T04:25:46.207Z,6.03
2023-12-18T04:28:15.935Z,6.01
2023-12-18T04:30:45.318Z,6.03
2023-12-18T04:33:15.425Z,6.01
2023-12-18T04:35:46.927Z,6.04
2023-12-18T04:38:17.474Z,6.03
2023-12-18T04:40:46.688Z,6.01
2023-12-18T04:43:18.204Z,6.04
2023-12-18T04:45:48.943Z,6.07
2023-12-18T04:48:23.398Z,6.05
2023-12-18T04:50:52.497Z,6.05
2023-12-18T04:53:21.456Z,6.08
2023-12-18T04:55:50.672Z,6.10
2023-12-18T04:58:21.568Z,6.10
2023-12-18T05:00:50.338Z,6.08
2023-12-18T05:03:22.405Z,6.10
2023-12-18T05:05:51.637Z,6.11
2023-12-18T05:08:20.289Z,6.08
2023-12-18T05:10:49.016Z,6.08
2023-12-18T05:13:19.970Z,6.08
2023-12-18T05:15:52.968Z,6.04
2023-12-18T05:18:24.417Z,6.05
2023-12-18T05:21:01.359Z,6.04
2023-12-18T05:23:30.198Z,6.05
2023-12-18T05:25:59.472Z,6.03
2023-12-18T05:28:29.283Z,6.03
2023-12-18T05:30:58.023Z,6.05
2023-12-18T05:33:29.351Z,6.07
2023-12-18T05:35:59.369Z,6.08
2023-12-18T05:38:28.288Z,6.08
2023-12-18T05:41:00.330Z,6.10
2023-12-18T05:43:31.536Z,6.11
2023-12-18T05:46:01.280Z,6.10
2023-12-18T05:48:31.765Z,6.11
2023-12-18T05:51:00.641Z,6.14
2023-12-18T05:53:30.873Z,6.15
2023-12-18T05:56:03.779Z,6.15
2023-12-18T05:58:34.308Z,6.18
2023-12-18T06:01:03.839Z,6.15
2023-12-18T06:03:34.164Z,6.17
2023-12-18T06:06:05.568Z,6.21
2023-12-18T06:08:34.727Z,6.22
2023-12-18T06:11:08.413Z,6.22
2023-12-18T06:13:40.348Z,6.25
2023-12-18T06:16:10.262Z,6.26
2023-12-18T06:18:42.909Z,6.29
2023-12-18T06:21:11.591Z,6.29
2023-12-18T06:23:43.654Z,6.29
2023-12-18T06:26:13.601Z,6.29
2023-12-18T06:28:42.379Z,6.29
2023-12-18T06:31:15.510Z,6.31
2023-12-18T06:33:46.232Z,6.34
2023-12-18T06:36:20.593Z,6.34
2023-12-18T06:38:53.756Z,6.35
2023-12-18T06:41:26.078Z,6.32
2023-12-18T06:43:57.130Z,6.36
2023-12-18T06:46:26.875Z,6.35
2023-12-18T06:48:59.430Z,6.34
2023-12-18T06:51:27.768Z,6.34
2023-12-18T06:53:57.457Z,6.34
2023-12-18T06:56:25.854Z,6.34
2023-12-18T06:58:57.533Z,6.35
2023-12-18T07:01:30.313Z,6.35
2023-12-18T07:04:01.087Z,6.36
2023-12-18T07:06:30.978Z,6.35
2023-12-18T07:09:00.983Z,6.39
2023-12-18T07:11:29.109Z,6.36
2023-12-18T07:13:57.577Z,6.35
2023-12-18T07:16:27.613Z,6.41
2023-12-18T07:18:57.729Z,6.44
2023-12-18T07:21:29.557Z,6.45
2023-12-18T07:23:59.001Z,6.44
2023-12-18T07:26:29.068Z,6.42
2023-12-18T07:28:57.603Z,6.41
2023-12-18T07:31:27.430Z,6.41
2023-12-18T07:33:58.161Z,6.41
2023-12-18T07:36:29.386Z,6.39
2023-12-18T07:38:59.686Z,6.39
2023-12-18T07:41:32.851Z,6.41
2023-12-18T07:44:04.635Z,6.44
2023-12-18T07:46:34.624Z,6.42
2023-12-18T07:49:06.309Z,6.39
2023-12-18T07:51:37.879Z,6.41
2023-12-18T07:54:09.317Z,6.39
2023-12-18T07:56:38.477Z,6.44
2023-12-18T07:59:07.563Z,6.46
2023-12-18T08:01:37.292Z,6.57
2023-12-18T08:04:06.907Z,6.71
2023-12-18T08:06:41.735Z,6.76
2023-12-18T08:09:11.827Z,6.82
2023-12-18T08:11:41.872Z,6.92
2023-12-18T08:14:11.458Z,7.00
2023-12-18T08:16:45.420Z,7.01
2023-12-18T08:19:13.696Z,7.08
2023-12-18T08:21:44.609Z,7.14
2023-12-18T08:24:13.418Z,7.15
2023-12-18T08:26:42.150Z,7.15
2023-12-18T08:29:15.864Z,7.15
2023-12-18T08:31:44.629Z,7.10
2023-12-18T08:34:13.617Z,7.08
2023-12-18T08:36:44.192Z,7.03
2023-12-18T08:39:15.541Z,7.03
2023-12-18T08:41:47.852Z,6.97
2023-12-18T08:44:24.068Z,6.94
2023-12-18T08:46:52.842Z,6.99
2023-12-18T08:49:21.412Z,6.93
2023-12-18T08:51:51.085Z,6.93
2023-12-18T08:54:22.525Z,6.96
2023-12-18T08:56:55.376Z,6.94
2023-12-18T08:59:27.119Z,6.97
2023-12-18T09:01:55.905Z,7.00
2023-12-18T09:04:24.564Z,7.10
2023-12-18T09:06:54.455Z,7.05
2023-12-18T09:09:25.285Z,7.05
2023-12-18T09:11:55.034Z,7.04
2023-12-18T09:14:27.493Z,7.04
2023-12-18T09:16:57.543Z,7.03
2023-12-18T09:19:30.160Z,7.01
2023-12-18T09:22:02.970Z,7.01
2023-12-18T09:24:35.693Z,7.04
2023-12-18T09:27:08.532Z,7.03
2023-12-18T09:29:38.497Z,7.01
2023-12-18T09:32:11.620Z,7.04
2023-12-18T09:34:41.320Z,7.00
2023-12-18T09:37:13.367Z,7.03
2023-12-18T09:39:45.206Z,7.04
2023-12-18T09:42:17.691Z,7.05
2023-12-18T09:44:48.403Z,7.03
2023-12-18T09:47:19.908Z,7.01
2023-12-18T09:49:48.402Z,7.05
2023-12-18T09:52:22.249Z,7.08
2023-12-18T09:54:51.418Z,7.10
2023-12-18T09:57:26.455Z,7.13
2023-12-18T09:59:55.408Z,7.21
2023-12-18T10:02:25.487Z,7.28
2023-12-18T10:04:53.865Z,7.38
2023-12-18T10:07:29.198Z,7.44
2023-12-18T10:09:57.944Z,7.42
2023-12-18T10:12:27.251Z,7.41
2023-12-18T10:14:58.156Z,7.44
2023-12-18T10:17:28.884Z,7.35
2023-12-18T10:19:59.635Z,7.34
2023-12-18T10:22:34.416Z,7.31
2023-12-18T10:25:04.746Z,7.30
2023-12-18T10:27:37.708Z,7.28
2023-12-18T10:30:08.017Z,7.27
2023-12-18T10:32:38.461Z,7.27
2023-12-18T10:35:09.796Z,7.30
2023-12-18T10:37:45.636Z,7.30
2023-12-18T10:40:16.796Z,7.31
2023-12-18T10:42:47.792Z,7.34
2023-12-18T10:45:18.028Z,7.32
2023-12-18T10:47:49.887Z,7.36
2023-12-18T10:50:19.498Z,7.38
2023-12-18T10:52:50.881Z,7.36
2023-12-18T10:55:20.599Z,7.34
2023-12-18T10:57:53.731Z,7.35
2023-12-18T11:00:24.484Z,7.35
2023-12-18T11:02:54.142Z,7.35
2023-12-18T11:05:22.730Z,7.35
2023-12-18T11:07:53.048Z,7.35
2023-12-18T11:10:24.153Z,7.38
2023-12-18T11:12:56.781Z,7.34
2023-12-18T11:15:36.316Z,7.35
2023-12-18T11:18:13.472Z,7.38
2023-12-18T11:20:44.032Z,7.35
2023-12-18T11:23:18.363Z,7.40
2023-12-18T11:25:53.248Z,7.41
2023-12-18T11:28:25.986Z,7.38
2023-12-18T11:31:04.477Z,7.36
2023-12-18T11:33:45.674Z,7.32
2023-12-18T11:36:18.532Z,7.32
2023-12-18T11:38:52.347Z,7.35
2023-12-18T11:41:46.269Z,7.34
2023-12-18T11:44:16.614Z,7.35
2023-12-18T11:46:46.495Z,7.32
2023-12-18T11:49:16.491Z,7.34
2023-12-18T11:51:47.042Z,7.31
2023-12-18T11:54:26.847Z,7.30
2023-12-18T11:57:02.573Z,7.31
2023-12-18T11:59:33.357Z,7.31
2023-12-18T12:02:03.232Z,7.34
2023-12-18T12:04:34.400Z,7.32
2023-12-18T12:07:07.354Z,7.36
2023-12-18T12:09:38.846Z,7.35
2023-12-18T12:12:08.660Z,7.38
2023-12-18T12:14:37.698Z,7.41
2023-12-18T12:17:10.296Z,7.42
2023-12-18T12:19:38.677Z,7.47
2023-12-18T12:22:08.520Z,7.50
2023-12-18T12:24:44.338Z,7.56
2023-12-18T12:27:15.447Z,7.61
2023-12-18T12:29:45.575Z,7.63
2023-12-18T12:32:18.340Z,7.68
2023-12-18T12:34:49.525Z,7.78
2023-12-18T12:37:21.419Z,7.82
2023-12-18T12:40:04.151Z,7.87
2023-12-18T12:42:40.500Z,7.93
2023-12-18T12:45:12.266Z,7.92
2023-12-18T12:47:45.217Z,7.96
2023-12-18T12:50:16.814Z,7.87
2023-12-18T12:52:48.530Z,7.87
2023-12-18T12:55:23.035Z,7.81
2023-12-18T12:57:54.032Z,7.79
2023-12-18T13:00:23.807Z,7.82
2023-12-18T13:02:53.286Z,7.81
2023-12-18T13:05:22.216Z,7.81
2023-12-18T13:07:53.775Z,7.82
2023-12-18T13:10:27.483Z,7.79
2023-12-18T13:12:57.777Z,7.76
2023-12-18T13:15:27.061Z,7.78
2023-12-18T13:17:58.164Z,7.76
2023-12-18T13:20:29.589Z,7.75
2023-12-18T13:22:59.066Z,7.72
2023-12-18T13:25:29.320Z,7.72
2023-12-18T13:28:00.967Z,7.72
2023-12-18T13:30:29.531Z,7.69
2023-12-18T13:32:59.418Z,7.65
2023-12-18T13:35:28.989Z,7.61
2023-12-18T13:37:57.784Z,7.58
2023-12-18T13:40:26.896Z,7.61
2023-12-18T13:42:58.081Z,7.59
2023-12-18T13:45:26.509Z,7.56
2023-12-18T13:47:56.686Z,7.52
2023-12-18T13:50:27.765Z,7.50
2023-12-18T13:52:57.985Z,7.45
2023-12-18T13:55:28.318Z,7.42
2023-12-18T13:57:59.969Z,7.40
2023-12-18T14:00:30.534Z,7.36
2023-12-18T14:03:06.401Z,7.36
2023-12-18T14:05:35.665Z,7.36
2023-12-18T14:08:04.588Z,7.34
2023-12-18T14:10:35.235Z,7.34
2023-12-18T14:13:08.481Z,7.32
2023-12-18T14:15:37.957Z,7.32
2023-12-18T14:18:06.553Z,7.31
2023-12-18T14:20:36.327Z,7.27
2023-12-18T14:23:06.577Z,7.30
2023-12-18T14:25:36.938Z,7.28
2023-12-18T14:28:08.892Z,7.28
2023-12-18T14:30:39.439Z,7.25
2023-12-18T14:33:11.832Z,7.27
2023-12-18T14:35:40.867Z,7.24
2023-12-18T14:38:09.671Z,7.28
2023-12-18T14:40:38.693Z,7.27
2023-12-18T14:43:09.193Z,7.27
2023-12-18T14:45:38.029Z,7.27
2023-12-18T14:48:07.110Z,7.28
2023-12-18T14:50:39.325Z,7.25
2023-12-18T14:53:14.047Z,7.23
2023-12-18T14:55:45.031Z,7.23
2023-12-18T14:58:18.471Z,7.21
2023-12-18T15:00:47.380Z,7.24
2023-12-18T15:03:19.188Z,7.23
2023-12-18T15:05:50.166Z,7.23
2023-12-18T15:08:19.938Z,7.21
2023-12-18T15:10:53.651Z,7.21
2023-12-18T15:13:26.727Z,7.17
2023-12-18T15:15:56.778Z,7.15
2023-12-18T15:18:27.223Z,7.14
2023-12-18T15:20:58.810Z,7.17
2023-12-18T15:23:30.460Z,7.15
2023-12-18T15:26:01.431Z,7.13
2023-12-18T15:28:34.416Z,7.11
2023-12-18T15:31:05.718Z,7.08
2023-12-18T15:33:36.362Z,7.10
2023-12-18T15:36:13.197Z,7.11
2023-12-18T15:38:47.384Z,7.08
2023-12-18T15:41:19.505Z,7.08
2023-12-18T15:43:50.942Z,7.05
2023-12-18T15:46:22.339Z,7.05
2023-12-18T15:48:55.902Z,7.03
2023-12-18T15:51:27.234Z,7.05
2023-12-18T15:53:59.049Z,6.99
2023-12-18T15:56:30.355Z,7.00
2023-12-18T15:59:03.078Z,6.94
2023-12-18T16:01:34.169Z,6.96
2023-12-18T16:04:05.268Z,6.94
2023-12-18T16:06:37.145Z,6.92
2023-12-18T16:09:10.097Z,6.87
2023-12-18T16:11:42.091Z,6.83
2023-12-18T16:14:16.432Z,6.76
2023-12-18T16:16:48.306Z,6.76
2023-12-18T16:19:21.842Z,6.72
2023-12-18T16:21:51.806Z,6.65
2023-12-18T16:24:27.730Z,6.61
2023-12-18T16:27:16.373Z,6.57
2023-12-18T16:29:47.579Z,6.52
2023-12-18T16:32:17.852Z,6.46
2023-12-18T16:34:49.075Z,6.38
2023-12-18T16:37:22.556Z,6.35
2023-12-18T16:39:55.817Z,6.28
2023-12-18T16:42:25.806Z,6.22
2023-12-18T16:44:57.190Z,6.15
2023-12-18T16:47:28.098Z,6.08
2023-12-18T16:50:00.053Z,6.01
2023-12-18T16:52:34.009Z,5.93
2023-12-18T16:55:03.667Z,5.91
2023-12-18T16:57:33.509Z,5.86
2023-12-18T17:00:12.331Z,5.82
2023-12-18T17:02:44.334Z,5.74
2023-12-18T17:05:14.749Z,5.73
2023-12-18T17:07:44.495Z,5.69
2023-12-18T17:10:14.338Z,5.67
2023-12-18T17:12:44.039Z,5.67
2023-12-18T17:15:15.618Z,5.63
2023-12-18T17:17:45.647Z,5.63
2023-12-18T17:20:15.604Z,5.62
2023-12-18T17:22:47.431Z,5.60
2023-12-18T17:25:23.510Z,5.57
2023-12-18T17:27:53.642Z,5.52
2023-12-18T17:30:24.995Z,5.49
2023-12-18T17:32:54.319Z,5.50
2023-12-18T17:35:23.926Z,5.46
2023-12-18T17:37:56.318Z,5.43
2023-12-18T17:40:26.496Z,5.39
2023-12-18T17:42:57.103Z,5.35
2023-12-18T17:45:29.040Z,5.35
2023-12-18T17:48:00.061Z,5.32
2023-12-18T17:50:28.802Z,5.29
2023-12-18T17:52:57.670Z,5.26
2023-12-18T17:55:26.776Z,5.24
2023-12-18T17:57:55.152Z,5.21
2023-12-18T18:00:24.167Z,5.16
2023-12-18T18:02:54.560Z,5.18
2023-12-18T18:05:22.957Z,5.14
2023-12-18T18:07:53.068Z,5.15
2023-12-18T18:10:23.582Z,5.11
2023-12-18T18:12:52.001Z,5.05
2023-12-18T18:15:21.737Z,5.04
2023-12-18T18:17:52.151Z,5.03
2023-12-18T18:20:26.689Z,4.99
2023-12-18T18:22:56.136Z,4.97
2023-12-18T18:25:24.480Z,4.97
2023-12-18T18:27:53.715Z,4.94
2023-12-18T18:30:26.592Z,4.89
2023-12-18T18:32:56.097Z,4.88
2023-12-18T18:35:26.406Z,4.88
2023-12-18T18:37:58.649Z,4.85
2023-12-18T18:40:27.899Z,4.84
2023-12-18T18:42:56.713Z,4.83
2023-12-18T18:45:28.085Z,4.84
2023-12-18T18:47:57.423Z,4.78
2023-12-18T18:50:28.518Z,4.78
2023-12-18T18:52:57.215Z,4.71
2023-12-18T18:55:26.774Z,4.70
2023-12-18T18:57:59.450Z,4.67
2023-12-18T19:00:28.479Z,4.64
2023-12-18T19:02:58.188Z,4.61
2023-12-18T19:05:30.179Z,4.59
2023-12-18T19:07:58.689Z,4.57
2023-12-18T19:10:29.729Z,4.60
2023-12-18T19:12:59.084Z,4.61
2023-12-18T19:15:27.469Z,4.60
2023-12-18T19:17:57.682Z,4.60
2023-12-18T19:20:28.630Z,4.57
2023-12-18T19:22:58.967Z,4.56
2023-12-18T19:25:27.712Z,4.53
2023-12-18T19:27:56.839Z,4.56
2023-12-18T19:30:28.027Z,4.57
2023-12-18T19:33:00.463Z,4.60
2023-12-18T19:35:30.872Z,4.57
2023-12-18T19:38:01.449Z,4.57
2023-12-18T19:40:29.946Z,4.57
2023-12-18T19:42:59.516Z,4.61
2023-12-18T19:45:27.672Z,4.63
2023-12-18T19:47:57.983Z,4.61
2023-12-18T19:50:27.612Z,4.63
2023-12-18T19:52:56.968Z,4.61
2023-12-18T19:55:28.213Z,4.59
2023-12-18T19:57:56.467Z,4.56
2023-12-18T20:00:26.156Z,4.54
2023-12-18T20:02:55.601Z,4.53
2023-12-18T20:05:28.888Z,4.52
2023-12-18T20:07:57.606Z,4.54
2023-12-18T20:10:28.870Z,4.54
2023-12-18T20:12:59.779Z,4.56
2023-12-18T20:15:29.207Z,4.59
2023-12-18T20:17:58.227Z,4.57
2023-12-18T20:20:26.662Z,4.61
2023-12-18T20:22:58.066Z,4.61
2023-12-18T20:25:29.637Z,4.63
2023-12-18T20:27:59.415Z,4.64
2023-12-18T20:30:28.000Z,4.64
2023-12-18T20:32:59.165Z,4.64
2023-12-18T20:35:38.575Z,4.67
2023-12-18T20:38:07.871Z,4.70
2023-12-18T20:40:38.697Z,4.68
2023-12-18T20:43:07.100Z,4.73
2023-12-18T20:45:36.284Z,4.74
2023-12-18T20:48:06.818Z,4.77
2023-12-18T20:50:37.232Z,4.77
2023-12-18T20:53:08.372Z,4.77
2023-12-18T20:55:38.021Z,4.78
2023-12-18T20:58:06.099Z,4.80
2023-12-18T21:00:36.443Z,4.81
2023-12-18T21:03:08.650Z,4.83
2023-12-18T21:05:38.127Z,4.84
2023-12-18T21:08:07.724Z,4.85
2023-12-18T21:10:40.982Z,4.87
2023-12-18T21:13:10.049Z,4.89
2023-12-18T21:15:40.665Z,4.92
2023-12-18T21:18:09.338Z,4.89
2023-12-18T21:20:38.278Z,4.91
2023-12-18T21:23:09.052Z,4.88
2023-12-18T21:25:40.034Z,4.88
2023-12-18T21:28:09.998Z,4.87
2023-12-18T21:30:38.646Z,4.87
2023-12-18T21:33:11.815Z,4.87
2023-12-18T21:35:40.638Z,4.84
2023-12-18T21:38:09.343Z,4.81
2023-12-18T21:40:41.378Z,4.83
2023-12-18T21:43:11.379Z,4.81
2023-12-18T21:45:43.928Z,4.78
2023-12-18T21:48:15.146Z,4.77
2023-12-18T21:50:45.132Z,4.80
2023-12-18T21:53:13.589Z,4.76
2023-12-18T21:55:43.846Z,4.74
2023-12-18T21:58:12.408Z,4.73
2023-12-18T22:00:42.314Z,4.73
2023-12-18T22:03:11.210Z,4.71
2023-12-18T22:05:40.045Z,4.71
2023-12-18T22:08:08.965Z,4.68
2023-12-18T22:10:42.241Z,4.68
2023-12-18T22:13:13.544Z,4.64
2023-12-18T22:15:42.180Z,4.64
2023-12-18T22:18:11.003Z,4.63
2023-12-18T22:20:46.186Z,4.64
2023-12-18T22:23:17.070Z,4.68
2023-12-18T22:25:45.719Z,4.68
2023-12-18T22:28:17.011Z,4.68
2023-12-18T22:30:45.338Z,4.67
2023-12-18T22:33:13.926Z,4.67
2023-12-18T22:35:43.294Z,4.66
2023-12-18T22:38:11.895Z,4.67
2023-12-18T22:40:42.922Z,4.68
2023-12-18T22:43:11.715Z,4.68
2023-12-18T22:45:41.634Z,4.70
2023-12-18T22:48:10.429Z,4.73
2023-12-18T22:50:38.994Z,4.73
2023-12-18T22:53:08.515Z,4.74
2023-12-18T22:55:39.807Z,4.76
2023-12-18T22:58:10.695Z,4.78
2023-12-18T23:00:39.995Z,4.80
2023-12-18T23:03:13.122Z,4.83
2023-12-18T23:05:42.245Z,4.83
2023-12-18T23:08:11.042Z,4.85
2023-12-18T23:10:40.471Z,4.85
2023-12-18T23:13:09.017Z,4.85
2023-12-18T23:15:37.799Z,4.85
2023-12-18T23:18:07.370Z,4.88
2023-12-18T23:20:39.334Z,4.85
2023-12-18T23:23:08.488Z,4.85
2023-12-18T23:25:37.951Z,4.85
2023-12-18T23:28:06.886Z,4.89
2023-12-18T23:30:37.240Z,4.92
2023-12-18T23:33:15.000Z,4.89
2023-12-18T23:35:48.657Z,4.89
2023-12-18T23:38:19.273Z,4.95
2023-12-18T23:40:49.360Z,4.92
2023-12-18T23:43:21.393Z,4.94
2023-12-18T23:45:50.453Z,4.95
2023-12-18T23:48:20.888Z,4.94
2023-12-18T23:50:50.871Z,4.95
2023-12-18T23:53:21.952Z,4.95
2023-12-18T23:55:52.648Z,4.97
2023-12-18T23:58:22.316Z,4.92
